sensor_id;sensor_type;location;lat;lon;timestamp;P1;durP1;ratioP1;P2;durP2;ratioP2
63203;SDS011;49297;43.210;27.914;2023-06-22T00:02:21;19.42;;;17.25;;
63203;SDS011;49297;43.210;27.914;2023-06-22T00:04:47;21.30;;;17.47;;
63203;SDS011;49297;43.210;27.914;2023-06-22T00:07:13;19.50;;;17.23;;
63203;SDS011;49297;43.210;27.914;2023-06-22T00:09:40;17.93;;;16.23;;
63203;SDS011;49297;43.210;27.914;2023-06-22T00:12:06;24.23;;;17.35;;
63203;SDS011;49297;43.210;27.914;2023-06-22T00:14:32;23.38;;;16.50;;
63203;SDS011;49297;43.210;27.914;2023-06-22T00:16:58;18.38;;;16.58;;
63203;SDS011;49297;43.210;27.914;2023-06-22T00:19:25;19.77;;;17.17;;
63203;SDS011;49297;43.210;27.914;2023-06-22T00:21:51;21.92;;;16.10;;
63203;SDS011;49297;43.210;27.914;2023-06-22T00:24:20;18.20;;;16.58;;
63203;SDS011;49297;43.210;27.914;2023-06-22T00:26:47;19.80;;;15.90;;
63203;SDS011;49297;43.210;27.914;2023-06-22T00:29:14;18.90;;;15.40;;
63203;SDS011;49297;43.210;27.914;2023-06-22T00:31:40;17.42;;;14.40;;
63203;SDS011;49297;43.210;27.914;2023-06-22T00:34:08;16.20;;;14.65;;
63203;SDS011;49297;43.210;27.914;2023-06-22T00:36:38;20.10;;;15.05;;
63203;SDS011;49297;43.210;27.914;2023-06-22T00:39:08;21.67;;;15.27;;
63203;SDS011;49297;43.210;27.914;2023-06-22T00:41:35;17.88;;;16.23;;
63203;SDS011;49297;43.210;27.914;2023-06-22T00:44:01;18.27;;;16.40;;
63203;SDS011;49297;43.210;27.914;2023-06-22T00:46:27;17.65;;;14.95;;
63203;SDS011;49297;43.210;27.914;2023-06-22T00:48:53;24.83;;;17.15;;
63203;SDS011;49297;43.210;27.914;2023-06-22T00:51:22;17.77;;;15.90;;
63203;SDS011;49297;43.210;27.914;2023-06-22T00:53:51;18.27;;;15.05;;
63203;SDS011;49297;43.210;27.914;2023-06-22T00:56:19;17.27;;;15.68;;
63203;SDS011;49297;43.210;27.914;2023-06-22T00:58:50;17.90;;;15.57;;
63203;SDS011;49297;43.210;27.914;2023-06-22T01:01:18;16.85;;;15.13;;
63203;SDS011;49297;43.210;27.914;2023-06-22T01:03:48;18.90;;;15.93;;
63203;SDS011;49297;43.210;27.914;2023-06-22T01:06:17;16.23;;;14.63;;
63203;SDS011;49297;43.210;27.914;2023-06-22T01:09:00;18.80;;;15.95;;
63203;SDS011;49297;43.210;27.914;2023-06-22T01:11:36;17.50;;;15.85;;
63203;SDS011;49297;43.210;27.914;2023-06-22T01:14:34;19.67;;;17.42;;
63203;SDS011;49297;43.210;27.914;2023-06-22T01:17:08;18.53;;;16.67;;
63203;SDS011;49297;43.210;27.914;2023-06-22T01:19:51;18.95;;;17.27;;
63203;SDS011;49297;43.210;27.914;2023-06-22T01:22:25;18.67;;;16.60;;
63203;SDS011;49297;43.210;27.914;2023-06-22T01:25:08;18.50;;;16.60;;
63203;SDS011;49297;43.210;27.914;2023-06-22T01:30:41;17.65;;;16.05;;
63203;SDS011;49297;43.210;27.914;2023-06-22T01:33:11;18.98;;;16.83;;
63203;SDS011;49297;43.210;27.914;2023-06-22T01:35:40;20.13;;;16.48;;
63203;SDS011;49297;43.210;27.914;2023-06-22T01:38:07;20.13;;;16.95;;
63203;SDS011;49297;43.210;27.914;2023-06-22T01:40:35;20.52;;;16.33;;
63203;SDS011;49297;43.210;27.914;2023-06-22T01:43:04;20.02;;;18.17;;
63203;SDS011;49297;43.210;27.914;2023-06-22T01:45:43;19.63;;;17.75;;
63203;SDS011;49297;43.210;27.914;2023-06-22T01:48:09;20.67;;;17.15;;
63203;SDS011;49297;43.210;27.914;2023-06-22T01:50:35;17.27;;;15.38;;
63203;SDS011;49297;43.210;27.914;2023-06-22T01:53:02;14.60;;;13.25;;
63203;SDS011;49297;43.210;27.914;2023-06-22T01:55:28;14.37;;;13.07;;
63203;SDS011;49297;43.210;27.914;2023-06-22T01:57:56;14.93;;;13.38;;
63203;SDS011;49297;43.210;27.914;2023-06-22T02:00:21;13.25;;;11.95;;
63203;SDS011;49297;43.210;27.914;2023-06-22T02:02:52;16.40;;;12.90;;
63203;SDS011;49297;43.210;27.914;2023-06-22T02:05:22;13.48;;;12.18;;
63203;SDS011;49297;43.210;27.914;2023-06-22T02:07:56;15.43;;;13.93;;
63203;SDS011;49297;43.210;27.914;2023-06-22T02:10:32;19.27;;;14.05;;
63203;SDS011;49297;43.210;27.914;2023-06-22T02:13:00;18.35;;;16.45;;
63203;SDS011;49297;43.210;27.914;2023-06-22T02:15:29;21.75;;;15.52;;
63203;SDS011;49297;43.210;27.914;2023-06-22T02:17:56;20.10;;;18.13;;
63203;SDS011;49297;43.210;27.914;2023-06-22T02:20:23;20.73;;;18.50;;
63203;SDS011;49297;43.210;27.914;2023-06-22T02:22:49;19.42;;;17.67;;
63203;SDS011;49297;43.210;27.914;2023-06-22T02:25:15;19.55;;;17.58;;
63203;SDS011;49297;43.210;27.914;2023-06-22T02:27:41;19.42;;;17.63;;
63203;SDS011;49297;43.210;27.914;2023-06-22T02:30:08;19.87;;;18.00;;
63203;SDS011;49297;43.210;27.914;2023-06-22T02:32:34;18.50;;;16.52;;
63203;SDS011;49297;43.210;27.914;2023-06-22T02:35:13;17.73;;;15.80;;
63203;SDS011;49297;43.210;27.914;2023-06-22T02:37:39;17.65;;;15.80;;
63203;SDS011;49297;43.210;27.914;2023-06-22T02:40:08;16.23;;;14.82;;
63203;SDS011;49297;43.210;27.914;2023-06-22T02:42:35;18.52;;;16.63;;
63203;SDS011;49297;43.210;27.914;2023-06-22T02:45:01;20.38;;;14.93;;
63203;SDS011;49297;43.210;27.914;2023-06-22T02:47:27;16.08;;;14.55;;
63203;SDS011;49297;43.210;27.914;2023-06-22T02:49:54;16.00;;;13.82;;
63203;SDS011;49297;43.210;27.914;2023-06-22T02:52:20;14.37;;;12.97;;
63203;SDS011;49297;43.210;27.914;2023-06-22T02:54:47;13.10;;;11.90;;
63203;SDS011;49297;43.210;27.914;2023-06-22T02:57:13;14.63;;;12.43;;
63203;SDS011;49297;43.210;27.914;2023-06-22T02:59:40;17.70;;;12.40;;
63203;SDS011;49297;43.210;27.914;2023-06-22T03:02:08;17.42;;;12.07;;
63203;SDS011;49297;43.210;27.914;2023-06-22T03:04:35;15.32;;;12.35;;
63203;SDS011;49297;43.210;27.914;2023-06-22T03:07:02;15.88;;;11.27;;
63203;SDS011;49297;43.210;27.914;2023-06-22T03:09:29;11.95;;;10.70;;
63203;SDS011;49297;43.210;27.914;2023-06-22T03:11:55;12.05;;;10.95;;
63203;SDS011;49297;43.210;27.914;2023-06-22T03:14:21;12.32;;;10.98;;
63203;SDS011;49297;43.210;27.914;2023-06-22T03:16:47;12.80;;;10.13;;
63203;SDS011;49297;43.210;27.914;2023-06-22T03:19:13;15.00;;;10.48;;
63203;SDS011;49297;43.210;27.914;2023-06-22T03:21:39;12.60;;;11.25;;
63203;SDS011;49297;43.210;27.914;2023-06-22T03:24:12;10.68;;;9.70;;
63203;SDS011;49297;43.210;27.914;2023-06-22T03:26:39;11.73;;;10.40;;
63203;SDS011;49297;43.210;27.914;2023-06-22T03:29:07;11.73;;;10.48;;
63203;SDS011;49297;43.210;27.914;2023-06-22T03:31:33;11.88;;;10.95;;
63203;SDS011;49297;43.210;27.914;2023-06-22T03:34:01;12.85;;;10.50;;
63203;SDS011;49297;43.210;27.914;2023-06-22T03:36:27;12.45;;;10.10;;
63203;SDS011;49297;43.210;27.914;2023-06-22T03:38:53;9.93;;;8.05;;
63203;SDS011;49297;43.210;27.914;2023-06-22T03:41:18;10.77;;;9.70;;
63203;SDS011;49297;43.210;27.914;2023-06-22T03:43:44;11.30;;;9.32;;
63203;SDS011;49297;43.210;27.914;2023-06-22T03:46:10;9.32;;;8.50;;
63203;SDS011;49297;43.210;27.914;2023-06-22T03:48:37;10.65;;;9.60;;
63203;SDS011;49297;43.210;27.914;2023-06-22T03:51:04;11.37;;;10.07;;
63203;SDS011;49297;43.210;27.914;2023-06-22T03:53:30;9.95;;;8.93;;
63203;SDS011;49297;43.210;27.914;2023-06-22T03:55:56;12.87;;;9.37;;
63203;SDS011;49297;43.210;27.914;2023-06-22T03:58:23;10.48;;;8.63;;
63203;SDS011;49297;43.210;27.914;2023-06-22T04:00:50;9.45;;;8.55;;
63203;SDS011;49297;43.210;27.914;2023-06-22T04:03:17;10.30;;;9.23;;
63203;SDS011;49297;43.210;27.914;2023-06-22T04:05:47;9.90;;;8.18;;
63203;SDS011;49297;43.210;27.914;2023-06-22T04:08:14;9.57;;;8.70;;
63203;SDS011;49297;43.210;27.914;2023-06-22T04:10:41;11.18;;;9.38;;
63203;SDS011;49297;43.210;27.914;2023-06-22T04:13:07;9.60;;;8.60;;
63203;SDS011;49297;43.210;27.914;2023-06-22T04:15:33;11.32;;;10.07;;
63203;SDS011;49297;43.210;27.914;2023-06-22T04:17:59;11.60;;;9.13;;
63203;SDS011;49297;43.210;27.914;2023-06-22T04:20:25;11.43;;;8.63;;
63203;SDS011;49297;43.210;27.914;2023-06-22T04:22:52;12.90;;;9.38;;
63203;SDS011;49297;43.210;27.914;2023-06-22T04:25:19;11.27;;;8.35;;
63203;SDS011;49297;43.210;27.914;2023-06-22T04:27:47;16.95;;;9.35;;
63203;SDS011;49297;43.210;27.914;2023-06-22T04:30:14;12.52;;;8.95;;
63203;SDS011;49297;43.210;27.914;2023-06-22T04:32:42;12.45;;;10.48;;
63203;SDS011;49297;43.210;27.914;2023-06-22T04:35:10;10.43;;;9.40;;
63203;SDS011;49297;43.210;27.914;2023-06-22T04:37:37;14.98;;;10.15;;
63203;SDS011;49297;43.210;27.914;2023-06-22T04:40:04;15.88;;;10.45;;
63203;SDS011;49297;43.210;27.914;2023-06-22T04:42:33;9.32;;;8.35;;
63203;SDS011;49297;43.210;27.914;2023-06-22T04:45:09;13.57;;;10.50;;
63203;SDS011;49297;43.210;27.914;2023-06-22T04:47:37;18.60;;;11.13;;
63203;SDS011;49297;43.210;27.914;2023-06-22T04:50:05;11.70;;;9.80;;
63203;SDS011;49297;43.210;27.914;2023-06-22T04:52:31;13.25;;;10.07;;
63203;SDS011;49297;43.210;27.914;2023-06-22T04:54:57;10.35;;;9.02;;
63203;SDS011;49297;43.210;27.914;2023-06-22T04:57:25;11.55;;;8.68;;
63203;SDS011;49297;43.210;27.914;2023-06-22T04:59:58;14.77;;;9.65;;
63203;SDS011;49297;43.210;27.914;2023-06-22T05:02:36;10.38;;;9.27;;
63203;SDS011;49297;43.210;27.914;2023-06-22T05:05:04;9.10;;;8.20;;
63203;SDS011;49297;43.210;27.914;2023-06-22T05:07:34;8.97;;;8.07;;
63203;SDS011;49297;43.210;27.914;2023-06-22T05:10:03;11.50;;;9.00;;
63203;SDS011;49297;43.210;27.914;2023-06-22T05:12:31;12.38;;;8.75;;
63203;SDS011;49297;43.210;27.914;2023-06-22T05:14:58;12.18;;;9.43;;
63203;SDS011;49297;43.210;27.914;2023-06-22T05:17:24;12.15;;;9.50;;
63203;SDS011;49297;43.210;27.914;2023-06-22T05:19:52;10.53;;;9.50;;
63203;SDS011;49297;43.210;27.914;2023-06-22T05:22:18;18.83;;;9.90;;
63203;SDS011;49297;43.210;27.914;2023-06-22T05:24:45;9.68;;;8.77;;
63203;SDS011;49297;43.210;27.914;2023-06-22T05:27:11;15.25;;;9.18;;
63203;SDS011;49297;43.210;27.914;2023-06-22T05:29:37;9.75;;;8.73;;
63203;SDS011;49297;43.210;27.914;2023-06-22T05:32:05;9.87;;;8.87;;
63203;SDS011;49297;43.210;27.914;2023-06-22T05:34:31;9.30;;;7.93;;
63203;SDS011;49297;43.210;27.914;2023-06-22T05:37:00;9.02;;;8.18;;
63203;SDS011;49297;43.210;27.914;2023-06-22T05:39:27;17.05;;;9.75;;
63203;SDS011;49297;43.210;27.914;2023-06-22T05:41:52;12.50;;;8.52;;
63203;SDS011;49297;43.210;27.914;2023-06-22T05:44:18;11.73;;;8.30;;
63203;SDS011;49297;43.210;27.914;2023-06-22T05:46:45;9.90;;;8.90;;
63203;SDS011;49297;43.210;27.914;2023-06-22T05:49:14;10.18;;;8.30;;
63203;SDS011;49297;43.210;27.914;2023-06-22T05:51:41;8.48;;;7.65;;
63203;SDS011;49297;43.210;27.914;2023-06-22T05:54:08;9.27;;;7.85;;
63203;SDS011;49297;43.210;27.914;2023-06-22T05:56:34;10.27;;;7.53;;
63203;SDS011;49297;43.210;27.914;2023-06-22T05:59:01;10.00;;;8.38;;
63203;SDS011;49297;43.210;27.914;2023-06-22T06:01:27;9.13;;;8.02;;
63203;SDS011;49297;43.210;27.914;2023-06-22T06:03:53;10.60;;;8.17;;
63203;SDS011;49297;43.210;27.914;2023-06-22T06:06:20;9.23;;;8.25;;
63203;SDS011;49297;43.210;27.914;2023-06-22T06:08:49;9.55;;;7.90;;
63203;SDS011;49297;43.210;27.914;2023-06-22T06:11:17;11.32;;;7.55;;
63203;SDS011;49297;43.210;27.914;2023-06-22T06:13:44;9.38;;;8.05;;
63203;SDS011;49297;43.210;27.914;2023-06-22T06:16:11;9.85;;;8.38;;
63203;SDS011;49297;43.210;27.914;2023-06-22T06:18:37;10.63;;;7.32;;
63203;SDS011;49297;43.210;27.914;2023-06-22T06:21:04;13.45;;;8.05;;
63203;SDS011;49297;43.210;27.914;2023-06-22T06:23:29;8.02;;;7.10;;
63203;SDS011;49297;43.210;27.914;2023-06-22T06:26:03;10.07;;;7.97;;
63203;SDS011;49297;43.210;27.914;2023-06-22T06:28:34;11.03;;;8.47;;
63203;SDS011;49297;43.210;27.914;2023-06-22T06:31:00;8.93;;;8.02;;
63203;SDS011;49297;43.210;27.914;2023-06-22T06:33:27;9.05;;;8.10;;
63203;SDS011;49297;43.210;27.914;2023-06-22T06:35:55;11.02;;;8.85;;
63203;SDS011;49297;43.210;27.914;2023-06-22T06:38:21;8.88;;;7.75;;
63203;SDS011;49297;43.210;27.914;2023-06-22T06:41:01;11.10;;;8.30;;
63203;SDS011;49297;43.210;27.914;2023-06-22T06:43:29;7.93;;;7.13;;
63203;SDS011;49297;43.210;27.914;2023-06-22T06:45:56;8.87;;;7.63;;
63203;SDS011;49297;43.210;27.914;2023-06-22T06:48:22;9.25;;;7.50;;
63203;SDS011;49297;43.210;27.914;2023-06-22T06:50:49;9.45;;;7.55;;
63203;SDS011;49297;43.210;27.914;2023-06-22T06:53:15;11.73;;;6.93;;
63203;SDS011;49297;43.210;27.914;2023-06-22T06:55:41;10.93;;;7.90;;
63203;SDS011;49297;43.210;27.914;2023-06-22T06:58:08;7.87;;;6.40;;
63203;SDS011;49297;43.210;27.914;2023-06-22T07:00:35;8.97;;;7.13;;
63203;SDS011;49297;43.210;27.914;2023-06-22T07:03:01;8.23;;;7.05;;
63203;SDS011;49297;43.210;27.914;2023-06-22T07:05:27;10.67;;;7.83;;
63203;SDS011;49297;43.210;27.914;2023-06-22T07:07:52;8.68;;;7.82;;
63203;SDS011;49297;43.210;27.914;2023-06-22T07:10:18;12.68;;;8.57;;
63203;SDS011;49297;43.210;27.914;2023-06-22T07:12:44;9.07;;;7.87;;
63203;SDS011;49297;43.210;27.914;2023-06-22T07:15:10;11.80;;;8.52;;
63203;SDS011;49297;43.210;27.914;2023-06-22T07:17:38;7.72;;;7.03;;
63203;SDS011;49297;43.210;27.914;2023-06-22T07:20:07;8.57;;;6.95;;
63203;SDS011;49297;43.210;27.914;2023-06-22T07:22:46;23.10;;;21.00;;
63203;SDS011;49297;43.210;27.914;2023-06-22T07:25:12;12.95;;;9.75;;
63203;SDS011;49297;43.210;27.914;2023-06-22T07:28:24;7.80;;;7.00;;
63203;SDS011;49297;43.210;27.914;2023-06-22T07:30:33;7.10;;;6.47;;
63203;SDS011;49297;43.210;27.914;2023-06-22T07:33:00;10.30;;;6.60;;
63203;SDS011;49297;43.210;27.914;2023-06-22T07:35:38;17.30;;;5.82;;
63203;SDS011;49297;43.210;27.914;2023-06-22T07:38:06;6.28;;;5.63;;
63203;SDS011;49297;43.210;27.914;2023-06-22T07:40:32;5.38;;;4.95;;
63203;SDS011;49297;43.210;27.914;2023-06-22T07:42:59;5.85;;;5.25;;
63203;SDS011;49297;43.210;27.914;2023-06-22T07:45:25;5.97;;;5.15;;
63203;SDS011;49297;43.210;27.914;2023-06-22T07:47:51;8.60;;;7.78;;
63203;SDS011;49297;43.210;27.914;2023-06-22T07:50:16;6.47;;;5.97;;
63203;SDS011;49297;43.210;27.914;2023-06-22T07:52:42;7.17;;;6.37;;
63203;SDS011;49297;43.210;27.914;2023-06-22T07:55:10;7.85;;;6.53;;
63203;SDS011;49297;43.210;27.914;2023-06-22T07:57:37;5.43;;;4.95;;
63203;SDS011;49297;43.210;27.914;2023-06-22T08:00:05;5.72;;;5.13;;
63203;SDS011;49297;43.210;27.914;2023-06-22T08:02:38;7.72;;;6.20;;
63203;SDS011;49297;43.210;27.914;2023-06-22T08:05:05;6.20;;;5.70;;
63203;SDS011;49297;43.210;27.914;2023-06-22T08:07:34;6.28;;;5.68;;
63203;SDS011;49297;43.210;27.914;2023-06-22T08:10:03;7.53;;;6.35;;
63203;SDS011;49297;43.210;27.914;2023-06-22T08:12:35;6.20;;;5.70;;
63203;SDS011;49297;43.210;27.914;2023-06-22T08:15:02;6.63;;;5.93;;
63203;SDS011;49297;43.210;27.914;2023-06-22T08:17:29;8.40;;;6.85;;
63203;SDS011;49297;43.210;27.914;2023-06-22T08:19:56;13.20;;;11.93;;
63203;SDS011;49297;43.210;27.914;2023-06-22T08:22:28;12.70;;;11.60;;
63203;SDS011;49297;43.210;27.914;2023-06-22T08:24:56;6.73;;;6.10;;
63203;SDS011;49297;43.210;27.914;2023-06-22T08:27:22;7.75;;;6.60;;
63203;SDS011;49297;43.210;27.914;2023-06-22T08:29:51;7.70;;;6.03;;
63203;SDS011;49297;43.210;27.914;2023-06-22T08:32:22;8.95;;;6.15;;
63203;SDS011;49297;43.210;27.914;2023-06-22T08:34:48;6.30;;;5.80;;
63203;SDS011;49297;43.210;27.914;2023-06-22T08:37:14;8.07;;;6.40;;
63203;SDS011;49297;43.210;27.914;2023-06-22T08:39:40;8.40;;;6.20;;
63203;SDS011;49297;43.210;27.914;2023-06-22T08:42:08;6.65;;;6.05;;
63203;SDS011;49297;43.210;27.914;2023-06-22T08:44:34;9.23;;;6.83;;
63203;SDS011;49297;43.210;27.914;2023-06-22T08:47:00;6.28;;;5.72;;
63203;SDS011;49297;43.210;27.914;2023-06-22T08:49:26;6.72;;;5.97;;
63203;SDS011;49297;43.210;27.914;2023-06-22T08:51:52;7.38;;;6.68;;
63203;SDS011;49297;43.210;27.914;2023-06-22T08:54:22;7.00;;;6.30;;
63203;SDS011;49297;43.210;27.914;2023-06-22T08:56:48;7.83;;;6.97;;
63203;SDS011;49297;43.210;27.914;2023-06-22T08:59:15;6.10;;;5.50;;
63203;SDS011;49297;43.210;27.914;2023-06-22T09:01:41;7.75;;;6.25;;
63203;SDS011;49297;43.210;27.914;2023-06-22T09:04:12;6.22;;;5.72;;
63203;SDS011;49297;43.210;27.914;2023-06-22T09:06:40;8.30;;;5.75;;
63203;SDS011;49297;43.210;27.914;2023-06-22T09:09:12;10.27;;;6.80;;
63203;SDS011;49297;43.210;27.914;2023-06-22T09:11:40;7.35;;;6.60;;
63203;SDS011;49297;43.210;27.914;2023-06-22T09:14:06;6.32;;;5.72;;
63203;SDS011;49297;43.210;27.914;2023-06-22T09:16:34;6.85;;;6.25;;
63203;SDS011;49297;43.210;27.914;2023-06-22T09:19:00;7.47;;;6.67;;
63203;SDS011;49297;43.210;27.914;2023-06-22T09:21:26;6.93;;;6.20;;
63203;SDS011;49297;43.210;27.914;2023-06-22T09:23:52;6.40;;;5.82;;
63203;SDS011;49297;43.210;27.914;2023-06-22T09:26:18;8.30;;;7.37;;
63203;SDS011;49297;43.210;27.914;2023-06-22T09:28:51;7.50;;;6.80;;
63203;SDS011;49297;43.210;27.914;2023-06-22T09:31:17;7.20;;;6.55;;
63203;SDS011;49297;43.210;27.914;2023-06-22T09:33:43;7.78;;;6.90;;
63203;SDS011;49297;43.210;27.914;2023-06-22T09:36:10;7.70;;;6.90;;
63203;SDS011;49297;43.210;27.914;2023-06-22T09:38:37;7.88;;;7.13;;
63203;SDS011;49297;43.210;27.914;2023-06-22T09:41:03;8.43;;;7.28;;
63203;SDS011;49297;43.210;27.914;2023-06-22T09:43:31;9.52;;;7.00;;
63203;SDS011;49297;43.210;27.914;2023-06-22T09:45:58;7.97;;;7.30;;
63203;SDS011;49297;43.210;27.914;2023-06-22T09:48:25;8.45;;;7.75;;
63203;SDS011;49297;43.210;27.914;2023-06-22T09:50:57;8.87;;;8.17;;
63203;SDS011;49297;43.210;27.914;2023-06-22T09:53:25;11.35;;;7.88;;
63203;SDS011;49297;43.210;27.914;2023-06-22T09:55:51;7.95;;;7.25;;
63203;SDS011;49297;43.210;27.914;2023-06-22T09:58:17;8.05;;;7.35;;
63203;SDS011;49297;43.210;27.914;2023-06-22T10:00:44;8.35;;;7.55;;
63203;SDS011;49297;43.210;27.914;2023-06-22T10:03:09;9.77;;;7.83;;
63203;SDS011;49297;43.210;27.914;2023-06-22T10:05:36;9.95;;;9.13;;
63203;SDS011;49297;43.210;27.914;2023-06-22T10:08:01;8.23;;;7.53;;
63203;SDS011;49297;43.210;27.914;2023-06-22T10:10:28;6.68;;;6.18;;
63203;SDS011;49297;43.210;27.914;2023-06-22T10:12:57;7.63;;;6.83;;
63203;SDS011;49297;43.210;27.914;2023-06-22T10:15:28;8.63;;;7.05;;
63203;SDS011;49297;43.210;27.914;2023-06-22T10:17:55;9.30;;;7.17;;
63203;SDS011;49297;43.210;27.914;2023-06-22T10:20:22;8.53;;;7.67;;
63203;SDS011;49297;43.210;27.914;2023-06-22T10:22:50;7.85;;;7.05;;
63203;SDS011;49297;43.210;27.914;2023-06-22T10:25:18;9.43;;;7.30;;
63203;SDS011;49297;43.210;27.914;2023-06-22T10:27:44;9.48;;;6.90;;
63203;SDS011;49297;43.210;27.914;2023-06-22T10:30:10;7.45;;;6.80;;
63203;SDS011;49297;43.210;27.914;2023-06-22T10:32:41;7.53;;;6.85;;
63203;SDS011;49297;43.210;27.914;2023-06-22T10:35:09;7.65;;;6.95;;
63203;SDS011;49297;43.210;27.914;2023-06-22T10:37:42;8.00;;;7.18;;
63203;SDS011;49297;43.210;27.914;2023-06-22T10:40:09;7.68;;;7.07;;
63203;SDS011;49297;43.210;27.914;2023-06-22T10:42:37;8.20;;;7.60;;
63203;SDS011;49297;43.210;27.914;2023-06-22T10:45:05;8.65;;;7.85;;
63203;SDS011;49297;43.210;27.914;2023-06-22T10:47:32;10.27;;;7.30;;
63203;SDS011;49297;43.210;27.914;2023-06-22T10:49:57;8.65;;;7.75;;
63203;SDS011;49297;43.210;27.914;2023-06-22T10:52:23;7.95;;;7.35;;
63203;SDS011;49297;43.210;27.914;2023-06-22T10:54:49;7.97;;;7.27;;
63203;SDS011;49297;43.210;27.914;2023-06-22T10:57:15;7.23;;;6.63;;
63203;SDS011;49297;43.210;27.914;2023-06-22T10:59:40;8.52;;;7.22;;
63203;SDS011;49297;43.210;27.914;2023-06-22T11:02:06;6.85;;;6.25;;
63203;SDS011;49297;43.210;27.914;2023-06-22T11:04:32;8.47;;;7.77;;
63203;SDS011;49297;43.210;27.914;2023-06-22T11:06:59;7.82;;;7.18;;
63203;SDS011;49297;43.210;27.914;2023-06-22T11:09:25;7.68;;;7.00;;
63203;SDS011;49297;43.210;27.914;2023-06-22T11:11:51;10.73;;;7.72;;
63203;SDS011;49297;43.210;27.914;2023-06-22T11:14:19;8.63;;;7.82;;
63203;SDS011;49297;43.210;27.914;2023-06-22T11:16:47;9.70;;;7.80;;
63203;SDS011;49297;43.210;27.914;2023-06-22T11:19:14;8.13;;;7.43;;
63203;SDS011;49297;43.210;27.914;2023-06-22T11:21:40;8.10;;;7.30;;
63203;SDS011;49297;43.210;27.914;2023-06-22T11:24:05;9.10;;;8.20;;
63203;SDS011;49297;43.210;27.914;2023-06-22T11:26:31;8.65;;;7.95;;
63203;SDS011;49297;43.210;27.914;2023-06-22T11:28:58;9.45;;;7.65;;
63203;SDS011;49297;43.210;27.914;2023-06-22T11:31:24;8.25;;;7.47;;
63203;SDS011;49297;43.210;27.914;2023-06-22T11:33:50;8.05;;;6.93;;
63203;SDS011;49297;43.210;27.914;2023-06-22T11:36:17;9.10;;;7.65;;
63203;SDS011;49297;43.210;27.914;2023-06-22T11:38:46;7.28;;;6.68;;
63203;SDS011;49297;43.210;27.914;2023-06-22T11:41:13;7.35;;;6.60;;
63203;SDS011;49297;43.210;27.914;2023-06-22T11:43:39;8.00;;;7.30;;
63203;SDS011;49297;43.210;27.914;2023-06-22T11:46:05;11.40;;;10.43;;
63203;SDS011;49297;43.210;27.914;2023-06-22T11:48:32;7.32;;;6.70;;
63203;SDS011;49297;43.210;27.914;2023-06-22T11:50:58;8.35;;;7.63;;
63203;SDS011;49297;43.210;27.914;2023-06-22T11:53:25;7.57;;;6.97;;
63203;SDS011;49297;43.210;27.914;2023-06-22T11:55:53;8.20;;;6.85;;
63203;SDS011;49297;43.210;27.914;2023-06-22T11:58:21;7.65;;;6.90;;
63203;SDS011;49297;43.210;27.914;2023-06-22T12:00:48;9.48;;;6.93;;
63203;SDS011;49297;43.210;27.914;2023-06-22T12:03:32;7.60;;;7.00;;
63203;SDS011;49297;43.210;27.914;2023-06-22T12:05:57;7.88;;;7.10;;
63203;SDS011;49297;43.210;27.914;2023-06-22T12:08:24;7.80;;;7.00;;
63203;SDS011;49297;43.210;27.914;2023-06-22T12:10:50;7.38;;;6.68;;
63203;SDS011;49297;43.210;27.914;2023-06-22T12:13:17;11.15;;;6.82;;
63203;SDS011;49297;43.210;27.914;2023-06-22T12:15:44;7.30;;;6.70;;
63203;SDS011;49297;43.210;27.914;2023-06-22T12:18:11;7.05;;;6.40;;
63203;SDS011;49297;43.210;27.914;2023-06-22T12:20:42;7.63;;;7.07;;
63203;SDS011;49297;43.210;27.914;2023-06-22T12:23:08;9.05;;;7.40;;
63203;SDS011;49297;43.210;27.914;2023-06-22T12:25:34;9.73;;;7.97;;
63203;SDS011;49297;43.210;27.914;2023-06-22T12:28:01;8.15;;;7.43;;
63203;SDS011;49297;43.210;27.914;2023-06-22T12:30:28;8.25;;;7.47;;
63203;SDS011;49297;43.210;27.914;2023-06-22T12:32:54;7.75;;;7.15;;
63203;SDS011;49297;43.210;27.914;2023-06-22T12:35:20;7.80;;;7.10;;
63203;SDS011;49297;43.210;27.914;2023-06-22T12:37:46;9.95;;;6.57;;
63203;SDS011;49297;43.210;27.914;2023-06-22T12:40:14;7.30;;;6.70;;
63203;SDS011;49297;43.210;27.914;2023-06-22T12:42:44;9.20;;;7.60;;
63203;SDS011;49297;43.210;27.914;2023-06-22T12:45:11;6.53;;;6.03;;
63203;SDS011;49297;43.210;27.914;2023-06-22T12:47:37;7.27;;;6.23;;
63203;SDS011;49297;43.210;27.914;2023-06-22T12:50:04;7.15;;;5.80;;
63203;SDS011;49297;43.210;27.914;2023-06-22T12:52:31;6.82;;;6.30;;
63203;SDS011;49297;43.210;27.914;2023-06-22T12:54:57;8.00;;;6.17;;
63203;SDS011;49297;43.210;27.914;2023-06-22T12:57:23;8.45;;;7.50;;
63203;SDS011;49297;43.210;27.914;2023-06-22T12:59:49;7.35;;;6.75;;
63203;SDS011;49297;43.210;27.914;2023-06-22T13:02:15;9.40;;;6.27;;
63203;SDS011;49297;43.210;27.914;2023-06-22T13:04:42;7.70;;;7.03;;
63203;SDS011;49297;43.210;27.914;2023-06-22T13:07:08;7.17;;;6.47;;
63203;SDS011;49297;43.210;27.914;2023-06-22T13:09:35;6.90;;;6.30;;
63203;SDS011;49297;43.210;27.914;2023-06-22T13:12:02;6.60;;;6.00;;
63203;SDS011;49297;43.210;27.914;2023-06-22T13:14:27;7.50;;;6.90;;
63203;SDS011;49297;43.210;27.914;2023-06-22T13:16:54;7.22;;;6.53;;
63203;SDS011;49297;43.210;27.914;2023-06-22T13:19:19;6.87;;;6.00;;
63203;SDS011;49297;43.210;27.914;2023-06-22T13:21:46;7.93;;;7.15;;
63203;SDS011;49297;43.210;27.914;2023-06-22T13:24:12;7.57;;;6.90;;
63203;SDS011;49297;43.210;27.914;2023-06-22T13:26:38;7.38;;;6.68;;
63203;SDS011;49297;43.210;27.914;2023-06-22T13:29:05;7.45;;;6.32;;
63203;SDS011;49297;43.210;27.914;2023-06-22T13:31:31;7.15;;;6.55;;
63203;SDS011;49297;43.210;27.914;2023-06-22T13:33:58;7.10;;;6.50;;
63203;SDS011;49297;43.210;27.914;2023-06-22T13:36:24;7.32;;;6.57;;
63203;SDS011;49297;43.210;27.914;2023-06-22T13:38:50;6.75;;;6.15;;
63203;SDS011;49297;43.210;27.914;2023-06-22T13:41:16;7.53;;;6.03;;
63203;SDS011;49297;43.210;27.914;2023-06-22T13:43:43;7.20;;;6.57;;
63203;SDS011;49297;43.210;27.914;2023-06-22T13:46:09;7.68;;;5.82;;
63203;SDS011;49297;43.210;27.914;2023-06-22T13:48:35;7.22;;;6.55;;
63203;SDS011;49297;43.210;27.914;2023-06-22T13:51:02;7.77;;;7.07;;
63203;SDS011;49297;43.210;27.914;2023-06-22T13:53:30;7.78;;;7.03;;
63203;SDS011;49297;43.210;27.914;2023-06-22T13:55:56;6.50;;;5.97;;
63203;SDS011;49297;43.210;27.914;2023-06-22T13:58:28;7.38;;;6.53;;
63203;SDS011;49297;43.210;27.914;2023-06-22T14:00:54;7.30;;;6.70;;
63203;SDS011;49297;43.210;27.914;2023-06-22T14:03:22;9.25;;;6.45;;
63203;SDS011;49297;43.210;27.914;2023-06-22T14:05:48;8.67;;;7.87;;
63203;SDS011;49297;43.210;27.914;2023-06-22T14:08:14;6.25;;;5.70;;
63203;SDS011;49297;43.210;27.914;2023-06-22T14:10:40;7.20;;;6.60;;
63203;SDS011;49297;43.210;27.914;2023-06-22T14:13:08;6.68;;;6.07;;
63203;SDS011;49297;43.210;27.914;2023-06-22T14:15:34;7.00;;;6.40;;
63203;SDS011;49297;43.210;27.914;2023-06-22T14:18:00;8.25;;;7.25;;
63203;SDS011;49297;43.210;27.914;2023-06-22T14:20:26;6.77;;;6.20;;
63203;SDS011;49297;43.210;27.914;2023-06-22T14:22:52;7.10;;;6.47;;
63203;SDS011;49297;43.210;27.914;2023-06-22T14:25:18;8.07;;;6.60;;
63203;SDS011;49297;43.210;27.914;2023-06-22T14:27:44;7.20;;;6.60;;
63203;SDS011;49297;43.210;27.914;2023-06-22T14:30:11;7.03;;;6.43;;
63203;SDS011;49297;43.210;27.914;2023-06-22T14:32:37;15.85;;;7.43;;